createdAt,value
2019-01-06T19:54:42.911Z,32.03
2019-01-06T19:57:36.426Z,25.57
2019-01-06T20:00:28.883Z,23.27
2019-01-06T20:03:18.217Z,21.13
2019-01-06T20:06:23.168Z,21.87
2019-01-06T20:09:28.831Z,24.73
2019-01-06T20:12:24.336Z,18.23
2019-01-06T20:15:12.676Z,18.33
2019-01-06T20:18:03.857Z,17.83
2019-01-06T20:21:00.059Z,19.43
2019-01-06T20:23:51.554Z,16.27
2019-01-06T20:26:41.108Z,17.93
2019-01-06T20:29:30.780Z,17.73
2019-01-06T20:32:22.116Z,17.13
2019-01-06T20:35:11.241Z,14.93
2019-01-06T20:38:10.327Z,16.50
2019-01-06T20:41:14.409Z,18.00
2019-01-06T20:44:05.417Z,15.23
2019-01-06T20:46:58.581Z,16.60
2019-01-06T20:49:59.412Z,13.07
2019-01-06T20:53:06.091Z,14.03
2019-01-06T20:56:02.530Z,14.87
2019-01-06T20:58:55.277Z,13.90
2019-01-06T21:01:52.539Z,13.93
2019-01-06T21:04:43.409Z,15.70
2019-01-06T21:07:45.224Z,14.33
2019-01-06T21:10:43.018Z,14.83
2019-01-06T21:13:37.783Z,15.27
2019-01-06T21:16:32.259Z,16.80
2019-01-06T21:19:23.572Z,13.90
2019-01-06T21:22:23.138Z,13.27
2019-01-06T21:25:26.384Z,14.77
2019-01-06T21:28:17.415Z,18.60
2019-01-06T21:31:07.607Z,17.13
2019-01-06T21:34:10.763Z,14.10
2019-01-06T21:37:18.771Z,14.70
2019-01-06T21:40:12.726Z,13.97
2019-01-06T21:43:06.819Z,16.67
2019-01-06T21:45:58.205Z,13.87
2019-01-06T21:48:48.292Z,15.27
2019-01-06T21:51:33.046Z,15.00
2019-01-06T21:54:23.595Z,15.87
2019-01-06T21:57:15.049Z,14.00
2019-01-06T22:00:23.620Z,13.60
2019-01-06T22:03:12.426Z,14.03
2019-01-06T22:06:02.716Z,13.33
2019-01-06T22:08:53.622Z,14.63
2019-01-06T22:11:41.837Z,13.53
2019-01-06T22:14:34.634Z,15.27
2019-01-06T22:17:35.507Z,15.00
2019-01-06T22:20:23.262Z,13.13
2019-01-06T22:23:24.847Z,14.77
2019-01-06T22:26:37.974Z,15.07
2019-01-06T22:29:26.164Z,16.57
2019-01-06T22:32:15.878Z,17.97
2019-01-06T22:35:04.200Z,15.27
2019-01-06T22:37:53.406Z,8.00
2019-01-06T22:40:46.460Z,12.77
2019-01-06T22:43:36.139Z,16.30
2019-01-06T22:46:32.009Z,14.47
2019-01-06T22:49:21.854Z,13.23
2019-01-06T22:52:14.913Z,14.80
2019-01-06T22:55:04.321Z,15.40
2019-01-06T22:57:53.874Z,14.10
2019-01-06T23:01:02.261Z,15.27
2019-01-06T23:03:54.815Z,16.40
2019-01-06T23:06:46.637Z,15.43
2019-01-06T23:09:36.253Z,16.37
2019-01-06T23:12:26.112Z,18.83
2019-01-06T23:15:14.824Z,18.90
2019-01-06T23:18:03.192Z,19.40
2019-01-06T23:20:51.758Z,17.30
2019-01-06T23:23:40.613Z,16.70
2019-01-06T23:26:46.662Z,18.80
2019-01-06T23:29:36.481Z,19.00
2019-01-06T23:32:29.639Z,17.80
2019-01-06T23:35:11.568Z,19.20
2019-01-06T23:38:14.006Z,17.53
2019-01-06T23:41:04.530Z,19.73
2019-01-06T23:43:53.115Z,15.37
2019-01-06T23:46:41.407Z,15.00
2019-01-06T23:49:36.772Z,16.83
2019-01-06T23:52:33.472Z,18.27
2019-01-06T23:55:21.690Z,17.23
2019-01-06T23:58:12.506Z,21.90
